Saga Pearl II — 9HA2950 — position and weather

sailwx.info

Track history (hours):
 
Tides and Currents Weather Stations Pressure Air Temp Water Temp Dewpoint Dewpoint Depression Visibility Wind Speed Wind Dir Waves Ship Positions

Saga Pearl II

Last reported at 2017-May-25 10:28 UTC. Time now 2017-May-25 10:32 UTC.
Position N 60°52' E 007°08'.

Length 165 m; draft 6.4 m.

Type: Ship. MMSI: 256878000.

Date/timePositionNaut miles runAvg speedWind from/ knotsBaromVisibWave heightAir tempDewpointWater temp
2017-May-25 10:28N 60°52' E 007°08'0 0.1
2017-May-25 09:58N 60°52' E 007°08'0 0.0
2017-May-25 09:28N 60°52' E 007°08'0 0.1
2017-May-25 08:58N 60°52' E 007°08'0 0.0
2017-May-25 08:30N 60°52' E 007°08'0 0.0
2017-May-25 08:00N 60°52' E 007°08'0 0.0
2017-May-25 07:30N 60°52' E 007°08'0 0.0
2017-May-25 07:00N 60°52' E 007°08'0 0.0
2017-May-25 06:30N 60°52' E 007°08'0 0.0
2017-May-25 05:59N 60°52' E 007°08'0 0.1
2017-May-25 05:29N 60°52' E 007°08'0 0.1
2017-May-25 05:00N 60°52' E 007°08'2 4.5
2017-May-25 04:30N 60°54' E 007°10'4 8.9
2017-May-25 04:00N 60°58' E 007°05'510.5
2017-May-25 03:30N 61°03' E 007°01'611.9
2017-May-25 03:00N 61°08' E 006°54'612.8
2017-May-25 02:30N 61°11' E 006°42'510.4
2017-May-25 02:00N 61°08' E 006°33'612.2
2017-May-25 01:30N 61°06' E 006°21'613.0
2017-May-25 01:00N 61°08' E 006°08'612.6
2017-May-25 00:30N 61°08' E 005°55'612.6
2017-May-24 23:59N 61°07' E 005°42'612.3
2017-May-24 23:30N 61°05' E 005°30'713.6
2017-May-24 23:00N 61°05' E 005°16'714.5
2017-May-24 22:30N 61°04' E 005°01'815.8
2017-May-24 22:00N 60°60' E 004°48'814.9
2017-May-24 21:30N 60°54' E 004°39'612.5
2017-May-24 21:00N 60°52' E 004°27'4 8.4
2017-May-24 20:30N 60°49' E 004°19'6 9.7
2017-May-24 19:54N 60°44' E 004°19'0 0.1
2017-May-24 18:55N 60°44' E 004°19'614.6
2017-May-24 18:30N 60°45' E 004°31'714.4
2017-May-24 18:00N 60°43' E 004°46'816.8
2017-May-24 17:30N 60°36' E 004°54'917.1
2017-May-24 17:00N 60°28' E 005°00'714.0
2017-May-24 16:30N 60°23' E 005°10'4 8.6
2017-May-24 16:00N 60°24' E 005°19'0 0.1
2017-May-24 15:30N 60°24' E 005°19'0 0.0
2017-May-24 15:00N 60°24' E 005°19'0 0.0
2017-May-24 14:30N 60°24' E 005°19'0 0.0
2017-May-24 13:29N 60°24' E 005°19'0 0.0
2017-May-24 12:59N 60°24' E 005°19'0 0.0
2017-May-24 12:29N 60°24' E 005°19'0 0.0
2017-May-24 11:59N 60°24' E 005°19'0 0.0
2017-May-24 11:28N 60°24' E 005°19'0 0.0
2017-May-24 10:58N 60°24' E 005°19'0 0.0
2017-May-24 10:28N 60°24' E 005°19'0 0.0
2017-May-24 09:58N 60°24' E 005°19'0 0.0
2017-May-24 09:28N 60°24' E 005°19'0 0.0
2017-May-24 09:00N 60°24' E 005°19'0 0.0
2017-May-24 08:30N 60°24' E 005°19'0 0.0
2017-May-24 08:00N 60°24' E 005°19'0 0.0
2017-May-24 07:30N 60°24' E 005°19'0 0.0
2017-May-24 07:00N 60°24' E 005°19'0 0.8
2017-May-24 06:29N 60°24' E 005°18'5 9.4
2017-May-24 06:00N 60°22' E 005°10'612.4
2017-May-24 05:30N 60°16' E 005°09'713.4
2017-May-24 05:00N 60°09' E 005°05'713.5
2017-May-24 04:30N 60°09' E 004°51'3 6.8
2017-May-24 04:00N 60°08' E 004°45'4 7.6
2017-May-24 03:30N 60°05' E 004°48'5 8.9
2017-May-24 03:00N 59°60' E 004°48'612.8
2017-May-24 02:30N 59°54' E 004°46'714.5
2017-May-24 01:59N 59°46' E 004°45'817.4
2017-May-24 01:30N 59°38' E 004°44'2617.4
2017-May-24 00:00N 59°12' E 004°36'919.4 290 / 221016.110.8 9.7 8.011.8
2017-May-23 23:30N 59°06' E 004°50'816.3
2017-May-23 23:00N 58°59' E 004°59'816.8
2017-May-23 22:30N 58°52' E 005°07'917.4
2017-May-23 22:00N 58°45' E 005°16'917.3
2017-May-23 21:30N 58°37' E 005°24'816.5
2017-May-23 21:00N 58°30' E 005°31'916.7
2017-May-23 20:29N 58°23' E 005°42'816.6
2017-May-23 20:00N 58°17' E 005°53'816.6
2017-May-23 19:30N 58°12' E 006°04'816.6
2017-May-23 19:00N 58°06' E 006°15'917.1
2017-May-23 18:30N 58°00' E 006°28'917.7
2017-May-23 18:00N 57°57' E 006°43'917.4
2017-May-23 17:30N 57°54' E 006°58'917.6
2017-May-23 17:00N 57°52' E 007°14'917.7
2017-May-23 16:30N 57°52' E 007°31'917.3
2017-May-23 16:00N 57°55' E 007°46'917.8
2017-May-23 15:30N 58°00' E 007°60'611.3
2017-May-23 15:00N 58°06' E 008°03'3 5.2
2017-May-23 14:28N 58°08' E 007°60'0 0.0
2017-May-23 13:30N 58°08' E 007°60'0 0.0
2017-May-23 13:00N 58°08' E 007°60'0 0.0
2017-May-23 12:30N 58°08' E 007°60'0 0.0
2017-May-23 11:59N 58°08' E 007°60'0 0.0
2017-May-23 11:29N 58°08' E 007°60'0 0.0
2017-May-23 10:59N 58°08' E 007°60'0 0.0
2017-May-23 10:29N 58°08' E 007°60'0 0.0
2017-May-23 09:59N 58°08' E 007°60'0 0.0
2017-May-23 09:28N 58°08' E 007°60'0 0.0
2017-May-23 08:58N 58°08' E 007°60'0 0.0
2017-May-23 08:28N 58°08' E 007°60'0 0.0
2017-May-23 07:58N 58°08' E 007°60'0 0.0
2017-May-23 07:31N 58°08' E 007°60'0 0.0
2017-May-23 07:00N 58°08' E 007°60'0 0.0
2017-May-23 06:30N 58°08' E 007°60'0 0.0
2017-May-23 06:00N 58°08' E 007°60'0 0.0
2017-May-23 05:30N 58°08' E 007°60'0 0.0
2017-May-23 04:59N 58°08' E 007°60'0 0.5
2017-May-23 04:30N 58°08' E 007°60'5 9.4
2017-May-23 04:00N 58°04' E 008°05'611.7
2017-May-23 03:29N 57°59' E 008°11'510.0
2017-May-23 03:00N 57°56' E 008°18'4 8.3
2017-May-23 02:30N 57°55' E 008°25'510.0
2017-May-23 02:00N 57°59' E 008°32'510.1
2017-May-23 01:30N 58°03' E 008°38'3 6.9
2017-May-23 01:00N 58°03' E 008°31'4 8.5
2017-May-23 00:30N 57°59' E 008°31'3 5.0
2017-May-23 00:00N 58°00' E 008°36'512.3 270 / 171015.110.8 10.1 8.713.0
2017-May-22 23:33N 58°01' E 008°46'3 9.1
2017-May-22 23:14N 58°03' E 008°50'3 9.3
2017-May-22 22:53N 58°06' E 008°54'4 9.8
2017-May-22 22:30N 58°09' E 008°52'510.1
2017-May-22 22:00N 58°15' E 008°51'510.4
2017-May-22 21:30N 58°20' E 008°50'4 9.0
2017-May-22 21:00N 58°24' E 008°48'3 6.8
2017-May-22 20:30N 58°27' E 008°46'0 0.2
2017-May-22 19:58N 58°28' E 008°46'0 0.0
2017-May-22 19:28N 58°28' E 008°46'0 0.0
2017-May-22 18:58N 58°28' E 008°46'0 0.0
2017-May-22 18:30N 58°28' E 008°46'0 0.0
2017-May-22 18:00N 58°28' E 008°46'0 0.0
2017-May-22 17:30N 58°28' E 008°46'0 0.0
2017-May-22 17:00N 58°28' E 008°46'0 0.0
2017-May-22 16:30N 58°28' E 008°46'0 0.0
2017-May-22 15:59N 58°28' E 008°46'0 0.0
2017-May-22 15:29N 58°28' E 008°46'0 0.0
2017-May-22 14:59N 58°28' E 008°46'0 0.0
2017-May-22 13:58N 58°28' E 008°46'0 0.0
2017-May-22 13:28N 58°28' E 008°46'0 0.0
2017-May-22 12:58N 58°28' E 008°46'0 0.0
2017-May-22 12:28N 58°28' E 008°46'0 0.0
2017-May-22 11:58N 58°28' E 008°46'0 0.0
2017-May-22 11:30N 58°28' E 008°46'0 0.0
2017-May-22 11:00N 58°28' E 008°46'0 0.0
2017-May-22 10:30N 58°28' E 008°46'0 0.0
2017-May-22 10:00N 58°28' E 008°46'0 0.0
2017-May-22 09:30N 58°28' E 008°46'0 0.0
2017-May-22 08:59N 58°28' E 008°46'0 0.2
2017-May-22 08:30N 58°27' E 008°46'4 7.5
2017-May-22 08:00N 58°24' E 008°48'510.0
2017-May-22 07:30N 58°19' E 008°51'5 9.7
2017-May-22 07:00N 58°14' E 008°53'5 9.9
2017-May-22 06:30N 58°10' E 008°55'510.1
2017-May-22 06:00N 58°05' E 008°58'4811.0
2017-May-22 01:40N 57°25' E 008°07'315.5
2017-May-22 01:30N 57°23' E 008°04'815.6
2017-May-22 01:00N 57°17' E 007°56'815.5
2017-May-22 00:28N 57°10' E 007°47'9715.2
2017-May-21 18:05N 55°47' E 006°16'9615.7
2017-May-21 12:00N 54°24' E 004°54'17114.8 230 / 121026.510.8 13.9 9.812.3
2017-May-21 00:27N 51°58' E 002°27'817.8
2017-May-21 00:00N 51°51' E 002°19'3838.1
2017-May-21 00:00N 51°48' E 002°18'613.3 200 / 181024.610.8 12.1 9.513.8
2017-May-20 23:31N 51°45' E 002°09'918.4
2017-May-20 23:01N 51°38' E 001°59'918.3
2017-May-20 22:30N 51°31' E 001°49'918.9
2017-May-20 22:01N 51°22' E 001°45'1019.2
2017-May-20 21:31N 51°13' E 001°39'918.3
2017-May-20 21:01N 51°07' E 001°27'5 9.0
2017-May-20 20:30N 51°06' E 001°20'0 0.7
2017-May-20 19:50N 51°07' E 001°20'0 0.0
2017-May-20 06:20N 51°07' E 001°20'3 9.6
2017-May-20 06:00N 51°07' E 001°25'5 9.1
2017-May-20 05:31N 51°08' E 001°32'510.9
2017-May-20 05:00N 51°11' E 001°39'611.5
2017-May-20 04:30N 51°15' E 001°46'611.6
2017-May-20 04:00N 51°20' E 001°50'611.5
2017-May-20 03:30N 51°25' E 001°54'611.9
2017-May-20 03:00N 51°30' E 002°00'612.0
2017-May-20 02:30N 51°34' E 002°07'611.9
2017-May-20 01:59N 51°38' E 002°15'511.4
2017-May-20 01:30N 51°43' E 002°20'610.8
2017-May-20 01:00N 51°47' E 002°25'51389.9
2017-May-20 01:00N 51°42' E 002°24'1417.7 220 / 141014.310.8 11.5 7.813.7
2017-May-20 00:11N 51°54' E 002°37'212.3
2017-May-19 23:59N 51°56' E 002°39'612.1
2017-May-19 23:29N 52°01' E 002°45'4412.0
2017-May-19 19:50N 52°29' E 003°40'411.8
2017-May-19 19:30N 52°30' E 003°46'611.6
2017-May-19 19:00N 52°31' E 003°55'611.8
2017-May-19 18:31N 52°31' E 004°05'611.7
2017-May-19 18:01N 52°31' E 004°14'612.1
2017-May-19 17:30N 52°29' E 004°24'510.6
2017-May-19 17:01N 52°28' E 004°33'2 3.0
2017-May-19 16:30N 52°28' E 004°35'0 0.0
2017-May-19 16:00N 52°28' E 004°35'0 0.0
2017-May-19 15:29N 52°28' E 004°35'0 0.0
2017-May-19 14:59N 52°28' E 004°35'0 0.0
2017-May-19 14:00N 52°28' E 004°35'0 0.0
2017-May-19 13:30N 52°28' E 004°35'0 0.0
2017-May-19 13:00N 52°28' E 004°35'0 0.0
2017-May-19 12:30N 52°28' E 004°35'0 0.0
2017-May-19 12:00N 52°28' E 004°35'0 0.0
2017-May-19 11:30N 52°28' E 004°35'0 0.0
2017-May-19 10:59N 52°28' E 004°35'0 0.0
2017-May-19 10:29N 52°28' E 004°35'0 0.0
2017-May-19 09:59N 52°28' E 004°35'0 0.0
2017-May-19 09:29N 52°28' E 004°35'0 0.0
2017-May-19 09:00N 52°28' E 004°35'1 1.5
2017-May-19 08:30N 52°28' E 004°34'511.0
2017-May-19 08:01N 52°29' E 004°25'5 9.2
2017-May-19 07:31N 52°29' E 004°18'611.0
2017-May-19 07:00N 52°30' E 004°09'611.9
2017-May-19 06:30N 52°35' E 004°05'612.3
2017-May-19 06:00N 52°41' E 004°02'612.1
2017-May-19 05:30N 52°47' E 003°57'611.9
2017-May-19 05:00N 52°53' E 003°58'712.6
2017-May-19 04:29N 52°58' E 004°03'1013.5
2017-May-19 03:43N 53°05' E 004°16'413.6
2017-May-19 03:28N 53°07' E 004°21'1813.1
2017-May-19 02:06N 53°23' E 004°34'113.0
2017-May-19 02:00N 53°24' E 004°34'612.0
2017-May-19 01:28N 53°30' E 004°41'1512.3
2017-May-19 00:13N 53°35' E 005°05'3013.4
2017-May-18 22:00N 53°42' E 005°54'8213.5 030 / 151012.2 0.3 9.8 9.2
2017-May-18 15:57N 54°00' E 008°09'5 9.9
2017-May-18 15:28N 54°00' E 008°17'915.6
2017-May-18 14:53N 53°58' E 008°32'1011.9
2017-May-18 14:00N 53°51' E 008°45'713.4
2017-May-18 13:30N 53°51' E 008°57'713.9
2017-May-18 13:00N 53°53' E 009°08'1 1.2
2017-May-18 12:31N 53°54' E 009°09'1 2.6
2017-May-18 12:01N 53°55' E 009°10'4 7.9
2017-May-18 11:30N 53°58' E 009°15'4 8.1
2017-May-18 11:00N 54°01' E 009°18'1 2.7
2017-May-18 10:30N 54°02' E 009°18'0 0.1
2017-May-18 10:00N 54°03' E 009°18'2 5.0
2017-May-18 09:30N 54°05' E 009°19'4 7.2
2017-May-18 09:00N 54°08' E 009°21'5 8.4
2017-May-18 08:28N 54°11' E 009°27'48 6.0
2017-May-18 00:29N 54°35' E 010°38'4 8.9
2017-May-18 00:00N 54°35' E 010°46'5336.1
2017-May-18 00:00N 54°30' E 010°42'817.3 140 / 221013.410.8 14.211.812.8
2017-May-17 23:30N 54°36' E 010°53'4 8.7
2017-May-17 23:00N 54°36' E 011°00'6 8.0
2017-May-17 22:17N 54°36' E 011°11'3 9.3
2017-May-17 22:00N 54°35' E 011°14'5 9.2
2017-May-17 21:30N 54°33' E 011°22'15 9.4
2017-May-17 19:55N 54°27' E 011°45'9 9.3
2017-May-17 18:57N 54°20' E 011°55'4 9.6
2017-May-17 18:30N 54°16' E 011°59'7 1.6
2017-May-17 14:15N 54°11' E 012°06'0 0.0
2017-May-17 13:15N 54°11' E 012°06'0 0.0
2017-May-17 13:00N 54°11' E 012°06'0 0.0
2017-May-17 10:14N 54°11' E 012°06'0 0.0
2017-May-17 09:58N 54°11' E 012°06'0 0.0
2017-May-17 04:59N 54°11' E 012°06'0 0.3
2017-May-17 04:26N 54°10' E 012°06'3 6.4
2017-May-17 03:55N 54°13' E 012°03'24 8.3
2017-May-17 01:00N 54°36' E 012°18'2118.8 160 / 201025.4 2.2 11.510.511.0
2017-May-17 00:58N 54°38' E 012°18'3819.1
2017-May-16 23:00N 54°54' E 013°18'11 4.7 180 / 151028.8 5.4 9.0 8.0
2017-May-16 20:43N 54°58' E 013°35'311.8
2017-May-16 20:29N 54°59' E 013°40'611.8
2017-May-16 19:59N 55°01' E 013°50'611.9
2017-May-16 19:29N 55°03' E 013°59'511.3
2017-May-16 19:00N 55°06' E 014°07'611.3
2017-May-16 18:30N 55°11' E 014°12'510.4
2017-May-16 18:00N 55°14' E 014°20'510.6
2017-May-16 17:30N 55°18' E 014°26'511.0
2017-May-16 17:00N 55°22' E 014°31'611.1
2017-May-16 16:30N 55°26' E 014°39'511.1
2017-May-16 16:00N 55°24' E 014°47'612.6
2017-May-16 15:30N 55°18' E 014°53'611.8
2017-May-16 15:00N 55°13' E 014°59'0 0.3
2017-May-16 14:27N 55°13' E 014°59'0 0.0
2017-May-16 13:26N 55°13' E 014°59'0 0.0
2017-May-16 12:59N 55°13' E 014°59'0 0.0
2017-May-16 12:29N 55°13' E 014°59'0 0.0
2017-May-16 11:56N 55°13' E 014°59'0 0.0
2017-May-16 11:25N 55°13' E 014°59'0 0.0
2017-May-16 10:55N 55°13' E 014°59'0 0.0
2017-May-16 10:28N 55°13' E 014°59'0 0.0
2017-May-16 09:55N 55°13' E 014°59'0 0.0
2017-May-16 09:30N 55°13' E 014°59'0 0.0
2017-May-16 09:00N 55°13' E 014°58'0 0.1
2017-May-16 08:30N 55°13' E 014°59'0 0.0
2017-May-16 08:00N 55°13' E 014°59'0 0.0
2017-May-16 07:30N 55°13' E 014°59'0 0.0
2017-May-16 06:59N 55°13' E 014°59'0 0.1
2017-May-16 06:29N 55°13' E 014°59'0 0.0
2017-May-16 05:59N 55°13' E 014°59'0 0.0
2017-May-16 05:30N 55°13' E 014°59'2 3.5
2017-May-16 05:00N 55°15' E 014°60'5 9.2
2017-May-16 04:30N 55°19' E 015°03'5 9.9
2017-May-16 04:00N 55°23' E 015°08'510.9
2017-May-16 03:30N 55°26' E 015°16'510.9
2017-May-16 03:00N 55°30' E 015°24'510.6
2017-May-16 02:30N 55°33' E 015°31'510.6
2017-May-16 02:00N 55°36' E 015°38'510.7
2017-May-16 01:30N 55°40' E 015°45'510.9
2017-May-16 01:00N 55°44' E 015°51'611.0
2017-May-16 00:30N 55°49' E 015°57'611.1
2017-May-16 00:00N 55°53' E 016°03'5358.9
2017-May-16 00:00N 55°48' E 016°00'1020.9 060 / 141029.610.8 7.4 6.3 9.1
2017-May-15 23:30N 55°57' E 016°09'5 9.3
2017-May-15 23:00N 55°59' E 016°16'5 9.4
2017-May-15 22:30N 56°02' E 016°23'510.8
2017-May-15 22:00N 56°05' E 016°31'611.1
2017-May-15 21:30N 56°08' E 016°39'611.0
2017-May-15 21:00N 56°11' E 016°47'611.1
2017-May-15 20:28N 56°15' E 016°56'511.1
2017-May-15 20:00N 56°18' E 017°03'611.2
2017-May-15 19:30N 56°21' E 017°12'611.1
2017-May-15 19:00N 56°24' E 017°20'611.2
2017-May-15 18:30N 56°28' E 017°28'611.1
2017-May-15 18:00N 56°31' E 017°36'811.2
2017-May-15 17:19N 56°36' E 017°47'311.1
2017-May-15 17:00N 56°38' E 017°52'  
Track history (hours):
 
Tides and Currents Weather Stations Pressure Air Temp Water Temp Dewpoint Dewpoint Depression Visibility Wind Speed Wind Dir Waves Ship Positions

Saga Pearl II

Last reported at 2017-May-25 10:28 UTC. Time now 2017-May-25 10:32 UTC.
Position N 60°52' E 007°08'.

Length 165 m; draft 6.4 m.

Type: Ship. MMSI: 256878000.

Date/timePositionNaut miles runAvg speedWind from/ knotsBaromVisibWave heightAir tempDewpointWater temp
2017-May-25 10:28N 60°52' E 007°08'0 0.1
2017-May-25 09:58N 60°52' E 007°08'0 0.0
2017-May-25 09:28N 60°52' E 007°08'0 0.1
2017-May-25 08:58N 60°52' E 007°08'0 0.0
2017-May-25 08:30N 60°52' E 007°08'0 0.0
2017-May-25 08:00N 60°52' E 007°08'0 0.0
2017-May-25 07:30N 60°52' E 007°08'0 0.0
2017-May-25 07:00N 60°52' E 007°08'0 0.0
2017-May-25 06:30N 60°52' E 007°08'0 0.0
2017-May-25 05:59N 60°52' E 007°08'0 0.1
2017-May-25 05:29N 60°52' E 007°08'0 0.1
2017-May-25 05:00N 60°52' E 007°08'2 4.5
2017-May-25 04:30N 60°54' E 007°10'4 8.9
2017-May-25 04:00N 60°58' E 007°05'510.5
2017-May-25 03:30N 61°03' E 007°01'611.9
2017-May-25 03:00N 61°08' E 006°54'612.8
2017-May-25 02:30N 61°11' E 006°42'510.4
2017-May-25 02:00N 61°08' E 006°33'612.2
2017-May-25 01:30N 61°06' E 006°21'613.0
2017-May-25 01:00N 61°08' E 006°08'612.6
2017-May-25 00:30N 61°08' E 005°55'612.6
2017-May-24 23:59N 61°07' E 005°42'612.3
2017-May-24 23:30N 61°05' E 005°30'713.6
2017-May-24 23:00N 61°05' E 005°16'714.5
2017-May-24 22:30N 61°04' E 005°01'815.8
2017-May-24 22:00N 60°60' E 004°48'814.9
2017-May-24 21:30N 60°54' E 004°39'612.5
2017-May-24 21:00N 60°52' E 004°27'4 8.4
2017-May-24 20:30N 60°49' E 004°19'6 9.7
2017-May-24 19:54N 60°44' E 004°19'0 0.1
2017-May-24 18:55N 60°44' E 004°19'614.6
2017-May-24 18:30N 60°45' E 004°31'714.4
2017-May-24 18:00N 60°43' E 004°46'816.8
2017-May-24 17:30N 60°36' E 004°54'917.1
2017-May-24 17:00N 60°28' E 005°00'714.0
2017-May-24 16:30N 60°23' E 005°10'4 8.6
2017-May-24 16:00N 60°24' E 005°19'0 0.1
2017-May-24 15:30N 60°24' E 005°19'0 0.0
2017-May-24 15:00N 60°24' E 005°19'0 0.0
2017-May-24 14:30N 60°24' E 005°19'0 0.0
2017-May-24 13:29N 60°24' E 005°19'0 0.0
2017-May-24 12:59N 60°24' E 005°19'0 0.0
2017-May-24 12:29N 60°24' E 005°19'0 0.0
2017-May-24 11:59N 60°24' E 005°19'0 0.0
2017-May-24 11:28N 60°24' E 005°19'0 0.0
2017-May-24 10:58N 60°24' E 005°19'0 0.0
2017-May-24 10:28N 60°24' E 005°19'0 0.0
2017-May-24 09:58N 60°24' E 005°19'0 0.0
2017-May-24 09:28N 60°24' E 005°19'0 0.0
2017-May-24 09:00N 60°24' E 005°19'0 0.0
2017-May-24 08:30N 60°24' E 005°19'0 0.0
2017-May-24 08:00N 60°24' E 005°19'0 0.0
2017-May-24 07:30N 60°24' E 005°19'0 0.0
2017-May-24 07:00N 60°24' E 005°19'0 0.8
2017-May-24 06:29N 60°24' E 005°18'5 9.4
2017-May-24 06:00N 60°22' E 005°10'612.4
2017-May-24 05:30N 60°16' E 005°09'713.4
2017-May-24 05:00N 60°09' E 005°05'713.5
2017-May-24 04:30N 60°09' E 004°51'3 6.8
2017-May-24 04:00N 60°08' E 004°45'4 7.6
2017-May-24 03:30N 60°05' E 004°48'5 8.9
2017-May-24 03:00N 59°60' E 004°48'612.8
2017-May-24 02:30N 59°54' E 004°46'714.5
2017-May-24 01:59N 59°46' E 004°45'817.4
2017-May-24 01:30N 59°38' E 004°44'2617.4
2017-May-24 00:00N 59°12' E 004°36'919.4 290 / 221016.110.8 9.7 8.011.8
2017-May-23 23:30N 59°06' E 004°50'816.3
2017-May-23 23:00N 58°59' E 004°59'816.8
2017-May-23 22:30N 58°52' E 005°07'917.4
2017-May-23 22:00N 58°45' E 005°16'917.3
2017-May-23 21:30N 58°37' E 005°24'816.5
2017-May-23 21:00N 58°30' E 005°31'916.7
2017-May-23 20:29N 58°23' E 005°42'816.6
2017-May-23 20:00N 58°17' E 005°53'816.6
2017-May-23 19:30N 58°12' E 006°04'816.6
2017-May-23 19:00N 58°06' E 006°15'917.1
2017-May-23 18:30N 58°00' E 006°28'917.7
2017-May-23 18:00N 57°57' E 006°43'917.4
2017-May-23 17:30N 57°54' E 006°58'917.6
2017-May-23 17:00N 57°52' E 007°14'917.7
2017-May-23 16:30N 57°52' E 007°31'917.3
2017-May-23 16:00N 57°55' E 007°46'917.8
2017-May-23 15:30N 58°00' E 007°60'611.3
2017-May-23 15:00N 58°06' E 008°03'3 5.2
2017-May-23 14:28N 58°08' E 007°60'0 0.0
2017-May-23 13:30N 58°08' E 007°60'0 0.0
2017-May-23 13:00N 58°08' E 007°60'0 0.0
2017-May-23 12:30N 58°08' E 007°60'0 0.0
2017-May-23 11:59N 58°08' E 007°60'0 0.0
2017-May-23 11:29N 58°08' E 007°60'0 0.0
2017-May-23 10:59N 58°08' E 007°60'0 0.0
2017-May-23 10:29N 58°08' E 007°60'0 0.0
2017-May-23 09:59N 58°08' E 007°60'0 0.0
2017-May-23 09:28N 58°08' E 007°60'0 0.0
2017-May-23 08:58N 58°08' E 007°60'0 0.0
2017-May-23 08:28N 58°08' E 007°60'0 0.0
2017-May-23 07:58N 58°08' E 007°60'0 0.0
2017-May-23 07:31N 58°08' E 007°60'0 0.0
2017-May-23 07:00N 58°08' E 007°60'0 0.0
2017-May-23 06:30N 58°08' E 007°60'0 0.0
2017-May-23 06:00N 58°08' E 007°60'0 0.0
2017-May-23 05:30N 58°08' E 007°60'0 0.0
2017-May-23 04:59N 58°08' E 007°60'0 0.5
2017-May-23 04:30N 58°08' E 007°60'5 9.4
2017-May-23 04:00N 58°04' E 008°05'611.7
2017-May-23 03:29N 57°59' E 008°11'510.0
2017-May-23 03:00N 57°56' E 008°18'4 8.3
2017-May-23 02:30N 57°55' E 008°25'510.0
2017-May-23 02:00N 57°59' E 008°32'510.1
2017-May-23 01:30N 58°03' E 008°38'3 6.9
2017-May-23 01:00N 58°03' E 008°31'4 8.5
2017-May-23 00:30N 57°59' E 008°31'3 5.0
2017-May-23 00:00N 58°00' E 008°36'512.3 270 / 171015.110.8 10.1 8.713.0
2017-May-22 23:33N 58°01' E 008°46'3 9.1
2017-May-22 23:14N 58°03' E 008°50'3 9.3
2017-May-22 22:53N 58°06' E 008°54'4 9.8
2017-May-22 22:30N 58°09' E 008°52'510.1
2017-May-22 22:00N 58°15' E 008°51'510.4
2017-May-22 21:30N 58°20' E 008°50'4 9.0
2017-May-22 21:00N 58°24' E 008°48'3 6.8
2017-May-22 20:30N 58°27' E 008°46'0 0.2
2017-May-22 19:58N 58°28' E 008°46'0 0.0
2017-May-22 19:28N 58°28' E 008°46'0 0.0
2017-May-22 18:58N 58°28' E 008°46'0 0.0
2017-May-22 18:30N 58°28' E 008°46'0 0.0
2017-May-22 18:00N 58°28' E 008°46'0 0.0
2017-May-22 17:30N 58°28' E 008°46'0 0.0
2017-May-22 17:00N 58°28' E 008°46'0 0.0
2017-May-22 16:30N 58°28' E 008°46'0 0.0
2017-May-22 15:59N 58°28' E 008°46'0 0.0
2017-May-22 15:29N 58°28' E 008°46'0 0.0
2017-May-22 14:59N 58°28' E 008°46'0 0.0
2017-May-22 13:58N 58°28' E 008°46'0 0.0
2017-May-22 13:28N 58°28' E 008°46'0 0.0
2017-May-22 12:58N 58°28' E 008°46'0 0.0
2017-May-22 12:28N 58°28' E 008°46'0 0.0
2017-May-22 11:58N 58°28' E 008°46'0 0.0
2017-May-22 11:30N 58°28' E 008°46'0 0.0
2017-May-22 11:00N 58°28' E 008°46'0 0.0
2017-May-22 10:30N 58°28' E 008°46'0 0.0
2017-May-22 10:00N 58°28' E 008°46'0 0.0
2017-May-22 09:30N 58°28' E 008°46'0 0.0
2017-May-22 08:59N 58°28' E 008°46'0 0.2
2017-May-22 08:30N 58°27' E 008°46'4 7.5
2017-May-22 08:00N 58°24' E 008°48'510.0
2017-May-22 07:30N 58°19' E 008°51'5 9.7
2017-May-22 07:00N 58°14' E 008°53'5 9.9
2017-May-22 06:30N 58°10' E 008°55'510.1
2017-May-22 06:00N 58°05' E 008°58'4811.0
2017-May-22 01:40N 57°25' E 008°07'315.5
2017-May-22 01:30N 57°23' E 008°04'815.6
2017-May-22 01:00N 57°17' E 007°56'815.5
2017-May-22 00:28N 57°10' E 007°47'9715.2
2017-May-21 18:05N 55°47' E 006°16'9615.7
2017-May-21 12:00N 54°24' E 004°54'17114.8 230 / 121026.510.8 13.9 9.812.3
2017-May-21 00:27N 51°58' E 002°27'817.8
2017-May-21 00:00N 51°51' E 002°19'3838.1
2017-May-21 00:00N 51°48' E 002°18'613.3 200 / 181024.610.8 12.1 9.513.8
2017-May-20 23:31N 51°45' E 002°09'918.4
2017-May-20 23:01N 51°38' E 001°59'918.3
2017-May-20 22:30N 51°31' E 001°49'918.9
2017-May-20 22:01N 51°22' E 001°45'1019.2
2017-May-20 21:31N 51°13' E 001°39'918.3
2017-May-20 21:01N 51°07' E 001°27'5 9.0
2017-May-20 20:30N 51°06' E 001°20'0 0.7
2017-May-20 19:50N 51°07' E 001°20'0 0.0
2017-May-20 06:20N 51°07' E 001°20'3 9.6
2017-May-20 06:00N 51°07' E 001°25'5 9.1
2017-May-20 05:31N 51°08' E 001°32'510.9
2017-May-20 05:00N 51°11' E 001°39'611.5
2017-May-20 04:30N 51°15' E 001°46'611.6
2017-May-20 04:00N 51°20' E 001°50'611.5
2017-May-20 03:30N 51°25' E 001°54'611.9
2017-May-20 03:00N 51°30' E 002°00'612.0
2017-May-20 02:30N 51°34' E 002°07'611.9
2017-May-20 01:59N 51°38' E 002°15'511.4
2017-May-20 01:30N 51°43' E 002°20'610.8
2017-May-20 01:00N 51°47' E 002°25'51389.9
2017-May-20 01:00N 51°42' E 002°24'1417.7 220 / 141014.310.8 11.5 7.813.7
2017-May-20 00:11N 51°54' E 002°37'212.3
2017-May-19 23:59N 51°56' E 002°39'612.1
2017-May-19 23:29N 52°01' E 002°45'4412.0
2017-May-19 19:50N 52°29' E 003°40'411.8
2017-May-19 19:30N 52°30' E 003°46'611.6
2017-May-19 19:00N 52°31' E 003°55'611.8
2017-May-19 18:31N 52°31' E 004°05'611.7
2017-May-19 18:01N 52°31' E 004°14'612.1
2017-May-19 17:30N 52°29' E 004°24'510.6
2017-May-19 17:01N 52°28' E 004°33'2 3.0
2017-May-19 16:30N 52°28' E 004°35'0 0.0
2017-May-19 16:00N 52°28' E 004°35'0 0.0
2017-May-19 15:29N 52°28' E 004°35'0 0.0
2017-May-19 14:59N 52°28' E 004°35'0 0.0
2017-May-19 14:00N 52°28' E 004°35'0 0.0
2017-May-19 13:30N 52°28' E 004°35'0 0.0
2017-May-19 13:00N 52°28' E 004°35'0 0.0
2017-May-19 12:30N 52°28' E 004°35'0 0.0
2017-May-19 12:00N 52°28' E 004°35'0 0.0
2017-May-19 11:30N 52°28' E 004°35'0 0.0
2017-May-19 10:59N 52°28' E 004°35'0 0.0
2017-May-19 10:29N 52°28' E 004°35'0 0.0
2017-May-19 09:59N 52°28' E 004°35'0 0.0
2017-May-19 09:29N 52°28' E 004°35'0 0.0
2017-May-19 09:00N 52°28' E 004°35'1 1.5
2017-May-19 08:30N 52°28' E 004°34'511.0
2017-May-19 08:01N 52°29' E 004°25'5 9.2
2017-May-19 07:31N 52°29' E 004°18'611.0
2017-May-19 07:00N 52°30' E 004°09'611.9
2017-May-19 06:30N 52°35' E 004°05'612.3
2017-May-19 06:00N 52°41' E 004°02'612.1
2017-May-19 05:30N 52°47' E 003°57'611.9
2017-May-19 05:00N 52°53' E 003°58'712.6
2017-May-19 04:29N 52°58' E 004°03'1013.5
2017-May-19 03:43N 53°05' E 004°16'413.6
2017-May-19 03:28N 53°07' E 004°21'1813.1
2017-May-19 02:06N 53°23' E 004°34'113.0
2017-May-19 02:00N 53°24' E 004°34'612.0
2017-May-19 01:28N 53°30' E 004°41'1512.3
2017-May-19 00:13N 53°35' E 005°05'3013.4
2017-May-18 22:00N 53°42' E 005°54'8213.5 030 / 151012.2 0.3 9.8 9.2
2017-May-18 15:57N 54°00' E 008°09'5 9.9
2017-May-18 15:28N 54°00' E 008°17'915.6
2017-May-18 14:53N 53°58' E 008°32'1011.9
2017-May-18 14:00N 53°51' E 008°45'713.4
2017-May-18 13:30N 53°51' E 008°57'713.9
2017-May-18 13:00N 53°53' E 009°08'1 1.2
2017-May-18 12:31N 53°54' E 009°09'1 2.6
2017-May-18 12:01N 53°55' E 009°10'4 7.9
2017-May-18 11:30N 53°58' E 009°15'4 8.1
2017-May-18 11:00N 54°01' E 009°18'1 2.7
2017-May-18 10:30N 54°02' E 009°18'0 0.1
2017-May-18 10:00N 54°03' E 009°18'2 5.0
2017-May-18 09:30N 54°05' E 009°19'4 7.2
2017-May-18 09:00N 54°08' E 009°21'5 8.4
2017-May-18 08:28N 54°11' E 009°27'48 6.0
2017-May-18 00:29N 54°35' E 010°38'4 8.9
2017-May-18 00:00N 54°35' E 010°46'5336.1
2017-May-18 00:00N 54°30' E 010°42'817.3 140 / 221013.410.8 14.211.812.8
2017-May-17 23:30N 54°36' E 010°53'4 8.7
2017-May-17 23:00N 54°36' E 011°00'6 8.0
2017-May-17 22:17N 54°36' E 011°11'3 9.3
2017-May-17 22:00N 54°35' E 011°14'5 9.2
2017-May-17 21:30N 54°33' E 011°22'15 9.4
2017-May-17 19:55N 54°27' E 011°45'9 9.3
2017-May-17 18:57N 54°20' E 011°55'4 9.6
2017-May-17 18:30N 54°16' E 011°59'7 1.6
2017-May-17 14:15N 54°11' E 012°06'0 0.0
2017-May-17 13:15N 54°11' E 012°06'0 0.0
2017-May-17 13:00N 54°11' E 012°06'0 0.0
2017-May-17 10:14N 54°11' E 012°06'0 0.0
2017-May-17 09:58N 54°11' E 012°06'0 0.0
2017-May-17 04:59N 54°11' E 012°06'0 0.3
2017-May-17 04:26N 54°10' E 012°06'3 6.4
2017-May-17 03:55N 54°13' E 012°03'24 8.3
2017-May-17 01:00N 54°36' E 012°18'2118.8 160 / 201025.4 2.2 11.510.511.0
2017-May-17 00:58N 54°38' E 012°18'3819.1
2017-May-16 23:00N 54°54' E 013°18'11 4.7 180 / 151028.8 5.4 9.0 8.0
2017-May-16 20:43N 54°58' E 013°35'311.8
2017-May-16 20:29N 54°59' E 013°40'611.8
2017-May-16 19:59N 55°01' E 013°50'611.9
2017-May-16 19:29N 55°03' E 013°59'511.3
2017-May-16 19:00N 55°06' E 014°07'611.3
2017-May-16 18:30N 55°11' E 014°12'510.4
2017-May-16 18:00N 55°14' E 014°20'510.6
2017-May-16 17:30N 55°18' E 014°26'511.0
2017-May-16 17:00N 55°22' E 014°31'611.1
2017-May-16 16:30N 55°26' E 014°39'511.1
2017-May-16 16:00N 55°24' E 014°47'612.6
2017-May-16 15:30N 55°18' E 014°53'611.8
2017-May-16 15:00N 55°13' E 014°59'0 0.3
2017-May-16 14:27N 55°13' E 014°59'0 0.0
2017-May-16 13:26N 55°13' E 014°59'0 0.0
2017-May-16 12:59N 55°13' E 014°59'0 0.0
2017-May-16 12:29N 55°13' E 014°59'0 0.0
2017-May-16 11:56N 55°13' E 014°59'0 0.0
2017-May-16 11:25N 55°13' E 014°59'0 0.0
2017-May-16 10:55N 55°13' E 014°59'0 0.0
2017-May-16 10:28N 55°13' E 014°59'0 0.0
2017-May-16 09:55N 55°13' E 014°59'0 0.0
2017-May-16 09:30N 55°13' E 014°59'0 0.0
2017-May-16 09:00N 55°13' E 014°58'0 0.1
2017-May-16 08:30N 55°13' E 014°59'0 0.0
2017-May-16 08:00N 55°13' E 014°59'0 0.0
2017-May-16 07:30N 55°13' E 014°59'0 0.0
2017-May-16 06:59N 55°13' E 014°59'0 0.1
2017-May-16 06:29N 55°13' E 014°59'0 0.0
2017-May-16 05:59N 55°13' E 014°59'0 0.0
2017-May-16 05:30N 55°13' E 014°59'2 3.5
2017-May-16 05:00N 55°15' E 014°60'5 9.2
2017-May-16 04:30N 55°19' E 015°03'5 9.9
2017-May-16 04:00N 55°23' E 015°08'510.9
2017-May-16 03:30N 55°26' E 015°16'510.9
2017-May-16 03:00N 55°30' E 015°24'510.6
2017-May-16 02:30N 55°33' E 015°31'510.6
2017-May-16 02:00N 55°36' E 015°38'510.7
2017-May-16 01:30N 55°40' E 015°45'510.9
2017-May-16 01:00N 55°44' E 015°51'611.0
2017-May-16 00:30N 55°49' E 015°57'611.1
2017-May-16 00:00N 55°53' E 016°03'5358.9
2017-May-16 00:00N 55°48' E 016°00'1020.9 060 / 141029.610.8 7.4 6.3 9.1
2017-May-15 23:30N 55°57' E 016°09'5 9.3
2017-May-15 23:00N 55°59' E 016°16'5 9.4
2017-May-15 22:30N 56°02' E 016°23'510.8
2017-May-15 22:00N 56°05' E 016°31'611.1
2017-May-15 21:30N 56°08' E 016°39'611.0
2017-May-15 21:00N 56°11' E 016°47'611.1
2017-May-15 20:28N 56°15' E 016°56'511.1
2017-May-15 20:00N 56°18' E 017°03'611.2
2017-May-15 19:30N 56°21' E 017°12'611.1
2017-May-15 19:00N 56°24' E 017°20'611.2
2017-May-15 18:30N 56°28' E 017°28'611.1
2017-May-15 18:00N 56°31' E 017°36'811.2
2017-May-15 17:19N 56°36' E 017°47'311.1
2017-May-15 17:00N 56°38' E 017°52'  

Dump ship's entire track history